Time;durP1;ratioP1;P1;durP2;ratioP2;P2;SDS_P1;SDS_P2;PMS_P1;PMS_P2;Temp;Humidity;BMP_temperature;BMP_pressure;BME280_temperature;BME280_humidity;BME280_pressure;Samples;Min_cycle;Max_cycle;Signal;HPM_P1;HPM_P2
2023/07/26 00:00:18;;;;;;;1.77;1.50;;;;;;;;;;5042955;28;20075;-86
2023/07/26 00:02:44;;;;;;;2.58;1.65;;;;;;;;;;5031992;28;20506;-86
2023/07/26 00:05:10;;;;;;;2.30;1.55;;;;;;;;;;5032234;28;20390;-86
2023/07/26 00:07:36;;;;;;;2.80;1.75;;;;;;;;;;5031624;28;20088;-86
2023/07/26 00:10:02;;;;;;;2.03;1.70;;;;;;;;;;5031240;28;20681;-85
2023/07/26 00:12:28;;;;;;;2.90;1.42;;;;;;;;;;5031687;28;20041;-86
2023/07/26 00:14:54;;;;;;;1.85;1.60;;;;;;;;;;5029923;28;20040;-86
2023/07/26 00:17:20;;;;;;;2.90;1.73;;;;;;;;;;5033794;28;20037;-86
2023/07/26 00:19:46;;;;;;;1.70;1.60;;;;;;;;;;5034132;28;20072;-86
2023/07/26 00:22:12;;;;;;;2.08;1.55;;;;;;;;;;5051887;28;20047;-86
2023/07/26 00:24:38;;;;;;;2.42;2.00;;;;;;;;;;5031711;28;20052;-86
2023/07/26 00:27:04;;;;;;;2.30;1.67;;;;;;;;;;5033976;28;20037;-86
2023/07/26 00:29:30;;;;;;;3.63;2.10;;;;;;;;;;5032557;28;20049;-86
2023/07/26 00:31:56;;;;;;;4.38;1.90;;;;;;;;;;5030927;28;20060;-86
2023/07/26 00:34:22;;;;;;;4.30;1.77;;;;;;;;;;5031295;28;20037;-87
2023/07/26 00:36:48;;;;;;;2.05;1.67;;;;;;;;;;5036392;28;20041;-86
2023/07/26 00:39:15;;;;;;;2.50;1.92;;;;;;;;;;5032106;28;20040;-86
2023/07/26 00:41:41;;;;;;;2.13;1.85;;;;;;;;;;5031364;28;20084;-86
2023/07/26 00:44:07;;;;;;;3.08;2.00;;;;;;;;;;5013840;28;20040;-86
2023/07/26 00:46:33;;;;;;;3.22;1.70;;;;;;;;;;5030741;28;20042;-86
2023/07/26 00:48:59;;;;;;;4.05;2.05;;;;;;;;;;5031241;28;20041;-86
2023/07/26 00:51:26;;;;;;;2.53;2.00;;;;;;;;;;5035543;28;20130;-86
2023/07/26 00:53:53;;;;;;;4.63;1.90;;;;;;;;;;5031736;28;20098;-86
2023/07/26 00:56:19;;;;;;;2.47;2.10;;;;;;;;;;5030768;28;20398;-86
2023/07/26 00:58:47;;;;;;;2.53;1.73;;;;;;;;;;5015964;28;20158;-86
2023/07/26 01:01:13;;;;;;;3.22;2.05;;;;;;;;;;5042559;28;20422;-86
2023/07/26 01:03:39;;;;;;;2.63;1.95;;;;;;;;;;5029903;28;20501;-86
2023/07/26 01:06:20;;;;;;;2.60;1.42;;;;;;;;;;5013611;28;20080;-86
2023/07/26 01:08:54;;;;;;;4.35;2.10;;;;;;;;;;5012104;28;20052;-86
2023/07/26 01:11:24;;;;;;;2.22;2.05;;;;;;;;;;5030821;28;20052;-86
2023/07/26 01:13:50;;;;;;;;;;;;;;;;;;5037785;28;20080;-86
2023/07/26 01:16:17;;;;;;;2.25;1.73;;;;;;;;;;5030530;28;20322;-86
2023/07/26 01:18:43;;;;;;;1.80;1.30;;;;;;;;;;5030910;28;20037;-87
2023/07/26 01:21:09;;;;;;;4.20;2.20;;;;;;;;;;5030007;28;20061;-86
2023/07/26 01:23:35;;;;;;;3.05;1.77;;;;;;;;;;5030570;28;20041;-85
2023/07/26 01:26:01;;;;;;;2.40;1.80;;;;;;;;;;5014689;28;20045;-86
2023/07/26 01:28:27;;;;;;;2.30;1.88;;;;;;;;;;5040443;28;20051;-86
2023/07/26 01:30:53;;;;;;;2.42;1.88;;;;;;;;;;5030999;28;20081;-86
2023/07/26 01:33:20;;;;;;;2.00;1.75;;;;;;;;;;5030441;28;20052;-86
2023/07/26 01:35:47;;;;;;;3.70;2.00;;;;;;;;;;5029776;28;20124;-86
2023/07/26 01:38:14;;;;;;;3.35;2.28;;;;;;;;;;5031390;28;20088;-86
2023/07/26 01:40:40;;;;;;;2.33;1.90;;;;;;;;;;5012984;28;20048;-86
2023/07/26 01:43:06;;;;;;;3.05;2.03;;;;;;;;;;5032636;28;20048;-86
2023/07/26 01:45:32;;;;;;;2.95;2.03;;;;;;;;;;5034489;28;20106;-86
2023/07/26 01:47:59;;;;;;;2.25;1.95;;;;;;;;;;5018019;28;20034;-86
2023/07/26 01:50:25;;;;;;;2.75;1.77;;;;;;;;;;5034917;28;20045;-86
2023/07/26 01:52:51;;;;;;;2.92;1.98;;;;;;;;;;5039832;28;20046;-86
2023/07/26 01:55:17;;;;;;;2.35;1.83;;;;;;;;;;5036682;28;20049;-86
2023/07/26 01:57:43;;;;;;;3.53;2.03;;;;;;;;;;5027305;28;20283;-86
2023/07/26 02:00:09;;;;;;;3.88;2.55;;;;;;;;;;5048999;28;20481;-86
2023/07/26 02:02:36;;;;;;;4.25;2.35;;;;;;;;;;5029965;28;20041;-86
2023/07/26 02:05:02;;;;;;;2.42;2.22;;;;;;;;;;5011976;28;20045;-86
2023/07/26 02:07:28;;;;;;;2.70;2.08;;;;;;;;;;5011869;28;20055;-86
2023/07/26 02:09:54;;;;;;;2.63;1.98;;;;;;;;;;5029354;28;20041;-86
2023/07/26 02:12:20;;;;;;;4.22;2.50;;;;;;;;;;5011462;28;20045;-86
2023/07/26 02:14:46;;;;;;;4.38;2.13;;;;;;;;;;5031240;28;21530;-86
2023/07/26 02:17:12;;;;;;;3.88;2.10;;;;;;;;;;5036249;28;20461;-86
2023/07/26 02:19:38;;;;;;;2.90;1.88;;;;;;;;;;5029370;28;20041;-86
2023/07/26 02:22:04;;;;;;;2.80;2.47;;;;;;;;;;5012529;28;20064;-86
2023/07/26 02:24:31;;;;;;;3.28;1.90;;;;;;;;;;5029569;28;20103;-86
2023/07/26 02:26:57;;;;;;;2.20;1.98;;;;;;;;;;5039971;28;20059;-86
2023/07/26 02:29:23;;;;;;;3.50;2.17;;;;;;;;;;5049616;28;20115;-86
2023/07/26 02:31:49;;;;;;;2.40;2.20;;;;;;;;;;5019385;28;20499;-86
2023/07/26 02:34:15;;;;;;;4.53;2.08;;;;;;;;;;5029255;28;20122;-86
2023/07/26 02:36:41;;;;;;;3.55;2.03;;;;;;;;;;4994891;28;20127;-86
2023/07/26 02:39:07;;;;;;;3.92;2.45;;;;;;;;;;5012222;28;20196;-87
2023/07/26 02:41:33;;;;;;;2.85;2.25;;;;;;;;;;5027190;28;20033;-86
2023/07/26 02:43:59;;;;;;;3.00;2.35;;;;;;;;;;5012016;28;20045;-86
2023/07/26 02:46:25;;;;;;;4.07;2.00;;;;;;;;;;5028601;28;20041;-86
2023/07/26 02:48:51;;;;;;;2.63;2.28;;;;;;;;;;5034680;28;20047;-86
2023/07/26 02:51:16;;;;;;;3.28;2.50;;;;;;;;;;5037055;28;20041;-85
2023/07/26 02:53:42;;;;;;;3.15;2.47;;;;;;;;;;5029833;28;20044;-86
2023/07/26 02:56:08;;;;;;;2.75;2.35;;;;;;;;;;5029628;28;20042;-86
2023/07/26 02:58:34;;;;;;;3.58;2.20;;;;;;;;;;5024563;28;20364;-86
2023/07/26 03:01:00;;;;;;;4.18;2.50;;;;;;;;;;5021041;28;20109;-86
2023/07/26 03:03:26;;;;;;;2.92;2.38;;;;;;;;;;5011207;28;20045;-86
2023/07/26 03:05:52;;;;;;;4.28;2.47;;;;;;;;;;5011734;28;20110;-86
2023/07/26 03:08:18;;;;;;;5.65;2.85;;;;;;;;;;5010694;28;20044;-86
2023/07/26 03:10:44;;;;;;;4.50;2.50;;;;;;;;;;5011292;28;20371;-86
2023/07/26 03:13:10;;;;;;;4.88;2.83;;;;;;;;;;5033426;28;20037;-86
2023/07/26 03:15:39;;;;;;;2.72;2.15;;;;;;;;;;5028701;28;20042;-86
2023/07/26 03:18:05;;;;;;;3.65;2.72;;;;;;;;;;5028933;28;20048;-86
2023/07/26 03:20:31;;;;;;;4.03;2.63;;;;;;;;;;5011051;28;20430;-87
2023/07/26 03:22:57;;;;;;;2.22;2.03;;;;;;;;;;5027541;28;20149;-86
2023/07/26 03:25:23;;;;;;;3.03;2.72;;;;;;;;;;5028508;28;20243;-87
2023/07/26 03:27:49;;;;;;;4.18;2.72;;;;;;;;;;5034122;28;20042;-86
2023/07/26 03:30:15;;;;;;;2.60;2.38;;;;;;;;;;5012129;28;20052;-86
2023/07/26 03:32:41;;;;;;;3.80;2.65;;;;;;;;;;5031735;28;20052;-86
2023/07/26 03:35:07;;;;;;;2.88;2.28;;;;;;;;;;5033153;28;20489;-86
2023/07/26 03:37:33;;;;;;;3.17;2.60;;;;;;;;;;5032096;28;20042;-86
2023/07/26 03:39:59;;;;;;;3.05;2.40;;;;;;;;;;5033036;28;20037;-86
2023/07/26 03:42:25;;;;;;;2.63;2.20;;;;;;;;;;5023996;28;20171;-85
2023/07/26 03:44:51;;;;;;;4.25;2.50;;;;;;;;;;5032666;28;20068;-86
2023/07/26 03:47:17;;;;;;;3.25;2.53;;;;;;;;;;5013299;28;20497;-86
2023/07/26 03:49:43;;;;;;;4.50;2.08;;;;;;;;;;5032332;28;20045;-86
2023/07/26 03:52:10;;;;;;;4.78;2.42;;;;;;;;;;5032653;28;20178;-86
2023/07/26 03:54:36;;;;;;;4.13;2.33;;;;;;;;;;5014426;28;20064;-86
2023/07/26 03:57:02;;;;;;;2.55;2.03;;;;;;;;;;5035332;28;20045;-86
2023/07/26 03:59:28;;;;;;;2.20;1.88;;;;;;;;;;5013346;28;20410;-86
2023/07/26 04:01:54;;;;;;;2.90;2.60;;;;;;;;;;5014201;28;20135;-87
2023/07/26 04:04:20;;;;;;;2.22;2.03;;;;;;;;;;5026158;28;20037;-86
2023/07/26 04:06:47;;;;;;;3.47;2.47;;;;;;;;;;5039308;28;20466;-86
2023/07/26 04:09:13;;;;;;;2.55;2.35;;;;;;;;;;5032320;28;20453;-86
2023/07/26 04:11:39;;;;;;;3.35;2.42;;;;;;;;;;5032484;28;20042;-86
2023/07/26 04:14:05;;;;;;;3.72;2.15;;;;;;;;;;5032451;28;20041;-87
2023/07/26 04:16:31;;;;;;;2.63;2.30;;;;;;;;;;5013400;28;20045;-86
2023/07/26 04:18:57;;;;;;;3.53;2.38;;;;;;;;;;5049586;28;20055;-86
2023/07/26 04:21:23;;;;;;;2.80;2.30;;;;;;;;;;5033373;28;20496;-86
2023/07/26 04:23:49;;;;;;;3.40;2.10;;;;;;;;;;5031457;28;20045;-86
2023/07/26 04:26:15;;;;;;;2.97;2.40;;;;;;;;;;5030066;28;20045;-86
2023/07/26 04:28:41;;;;;;;3.55;2.50;;;;;;;;;;5017051;28;20048;-86
2023/07/26 04:31:07;;;;;;;4.47;2.63;;;;;;;;;;5033910;28;20052;-86
2023/07/26 04:33:33;;;;;;;3.60;2.38;;;;;;;;;;5012033;28;20050;-86
2023/07/26 04:35:59;;;;;;;2.40;2.20;;;;;;;;;;5007335;28;20383;-86
2023/07/26 04:38:25;;;;;;;4.18;2.53;;;;;;;;;;5029908;28;20095;-85
2023/07/26 04:40:51;;;;;;;4.53;2.25;;;;;;;;;;5031043;28;20577;-84
2023/07/26 04:43:21;;;;;;;2.60;2.40;;;;;;;;;;5029179;28;20172;-85
2023/07/26 04:45:51;;;;;;;3.08;2.78;;;;;;;;;;5030433;28;20056;-86
2023/07/26 04:48:17;;;;;;;2.33;2.13;;;;;;;;;;4996174;28;20045;-87
2023/07/26 04:50:43;;;;;;;4.57;2.00;;;;;;;;;;5031112;28;20037;-86
2023/07/26 04:53:09;;;;;;;3.30;1.88;;;;;;;;;;5031430;28;20041;-87
2023/07/26 04:55:45;;;;;;;3.72;2.55;;;;;;;;;;5035572;28;20037;-87
2023/07/26 04:58:11;;;;;;;3.72;1.95;;;;;;;;;;5035234;28;20219;-87
2023/07/26 05:00:41;;;;;;;3.70;2.47;;;;;;;;;;5030690;28;20063;-86
2023/07/26 05:03:07;;;;;;;2.35;2.08;;;;;;;;;;5011380;28;20497;-85
2023/07/26 05:05:33;;;;;;;3.25;2.25;;;;;;;;;;5030189;28;20044;-85
2023/07/26 05:07:59;;;;;;;3.55;1.90;;;;;;;;;;5030399;28;20080;-85
2023/07/26 05:10:25;;;;;;;4.70;2.60;;;;;;;;;;5030216;28;20451;-85
2023/07/26 05:12:52;;;;;;;2.50;1.85;;;;;;;;;;5012175;28;20132;-84
2023/07/26 05:15:18;;;;;;;3.03;2.08;;;;;;;;;;5030831;28;20033;-84
2023/07/26 05:17:47;;;;;;;4.00;2.50;;;;;;;;;;5035753;28;20099;-84
2023/07/26 05:20:13;;;;;;;4.72;2.58;;;;;;;;;;5035579;28;20040;-84
2023/07/26 05:22:39;;;;;;;4.38;2.70;;;;;;;;;;5036639;28;20080;-84
2023/07/26 05:25:06;;;;;;;3.45;2.10;;;;;;;;;;5030884;28;20041;-84
2023/07/26 05:27:32;;;;;;;3.00;2.65;;;;;;;;;;5029284;28;20084;-84
2023/07/26 05:29:58;;;;;;;3.42;2.53;;;;;;;;;;5011653;28;20085;-84
2023/07/26 05:32:24;;;;;;;2.42;2.22;;;;;;;;;;5011671;28;20048;-84
2023/07/26 05:34:54;;;;;;;2.70;2.42;;;;;;;;;;5022357;28;20044;-84
2023/07/26 05:37:20;;;;;;;3.10;2.30;;;;;;;;;;5011859;28;20038;-85
2023/07/26 05:39:47;;;;;;;3.17;2.45;;;;;;;;;;5009703;28;20037;-84
2023/07/26 05:42:13;;;;;;;4.05;3.05;;;;;;;;;;5027856;28;20041;-82
2023/07/26 05:44:39;;;;;;;3.63;2.40;;;;;;;;;;5009567;28;20183;-83
2023/07/26 05:47:05;;;;;;;3.72;3.10;;;;;;;;;;5034774;28;20502;-85
2023/07/26 05:49:31;;;;;;;3.20;2.58;;;;;;;;;;5012807;28;20045;-82
2023/07/26 05:51:59;;;;;;;4.28;2.55;;;;;;;;;;5018457;28;20044;-82
2023/07/26 05:54:25;;;;;;;5.10;2.97;;;;;;;;;;5027199;28;20409;-84
2023/07/26 05:56:51;;;;;;;3.50;2.60;;;;;;;;;;5039620;28;20049;-88
2023/07/26 05:59:17;;;;;;;2.72;2.38;;;;;;;;;;5027740;28;20402;-89
2023/07/26 06:01:43;;;;;;;2.92;2.58;;;;;;;;;;5012501;28;20102;-89
2023/07/26 06:04:09;;;;;;;2.50;2.10;;;;;;;;;;5017208;28;20072;-86
2023/07/26 06:06:35;;;;;;;3.13;2.33;;;;;;;;;;5015217;28;20188;-86
2023/07/26 06:09:01;;;;;;;3.65;2.35;;;;;;;;;;5012008;28;20056;-85
2023/07/26 06:11:27;;;;;;;3.47;2.63;;;;;;;;;;5028674;28;20041;-85
2023/07/26 06:13:54;;;;;;;4.30;3.60;;;;;;;;;;5033149;28;20030;-86
2023/07/26 06:16:20;;;;;;;2.85;2.13;;;;;;;;;;5038175;28;20045;-86
2023/07/26 06:18:46;;;;;;;3.80;2.90;;;;;;;;;;5011340;28;20034;-85
2023/07/26 06:21:13;;;;;;;5.65;3.10;;;;;;;;;;5029559;28;20038;-87
2023/07/26 06:23:39;;;;;;;3.60;2.47;;;;;;;;;;5009515;28;20033;-86
2023/07/26 06:26:05;;;;;;;2.90;2.58;;;;;;;;;;5029109;28;20124;-88
2023/07/26 06:28:31;;;;;;;4.10;2.95;;;;;;;;;;5029831;28;20038;-86
2023/07/26 06:30:57;;;;;;;4.25;3.33;;;;;;;;;;5029926;28;20448;-85
2023/07/26 06:33:23;;;;;;;3.00;2.70;;;;;;;;;;5012590;28;20080;-87
2023/07/26 06:35:49;;;;;;;5.60;2.95;;;;;;;;;;5031104;28;20065;-87
2023/07/26 06:38:15;;;;;;;4.65;2.80;;;;;;;;;;5031043;28;20109;-84
2023/07/26 06:40:41;;;;;;;2.95;2.20;;;;;;;;;;5033013;28;20046;-90
2023/07/26 06:43:07;;;;;;;6.25;3.38;;;;;;;;;;5036414;28;20041;-86
2023/07/26 06:45:33;;;;;;;4.10;2.90;;;;;;;;;;5018566;28;20402;-87
2023/07/26 06:47:59;;;;;;;3.75;2.55;;;;;;;;;;5032733;28;20088;-86
2023/07/26 06:50:25;;;;;;;4.90;2.97;;;;;;;;;;5030930;28;20021;-89
2023/07/26 06:52:51;;;;;;;3.35;2.38;;;;;;;;;;5015004;28;20049;-88
2023/07/26 06:55:17;;;;;;;3.83;2.58;;;;;;;;;;5011438;28;20517;-92
2023/07/26 06:57:43;;;;;;;4.53;2.58;;;;;;;;;;5011479;28;20041;-89
2023/07/26 07:00:12;;;;;;;3.42;2.58;;;;;;;;;;5044043;28;20045;-89
2023/07/26 07:02:39;;;;;;;4.00;2.58;;;;;;;;;;5025417;28;20046;-89
2023/07/26 07:05:06;;;;;;;3.85;2.45;;;;;;;;;;5041754;28;20042;-94
2023/07/26 07:07:32;;;;;;;3.22;2.55;;;;;;;;;;5040613;28;20071;-94
2023/07/26 07:09:58;;;;;;;3.17;2.80;;;;;;;;;;5032856;28;20045;-96
2023/07/26 07:12:24;;;;;;;4.47;3.03;;;;;;;;;;5027640;28;20044;-90
2023/07/26 07:14:50;;;;;;;5.05;3.20;;;;;;;;;;5019353;28;20056;-88
2023/07/26 07:17:16;;;;;;;3.25;2.38;;;;;;;;;;5025600;28;20045;-91
2023/07/26 07:19:45;;;;;;;3.78;2.40;;;;;;;;;;5030858;28;20042;-86
2023/07/26 07:22:11;;;;;;;3.88;2.53;;;;;;;;;;5015600;28;20045;-91
2023/07/26 07:24:38;;;;;;;2.75;2.45;;;;;;;;;;5013535;28;20144;-92
2023/07/26 07:27:04;;;;;;;5.05;2.85;;;;;;;;;;5013951;28;20056;-93
2023/07/26 07:29:32;;;;;;;4.07;2.70;;;;;;;;;;5021017;28;20103;-92
2023/07/26 07:31:58;;;;;;;2.65;2.13;;;;;;;;;;5033938;28;20451;-90
2023/07/26 07:34:25;;;;;;;2.92;2.63;;;;;;;;;;5014753;28;20081;-93
2023/07/26 07:36:51;;;;;;;4.15;3.20;;;;;;;;;;5042888;28;20045;-92
2023/07/26 07:39:17;;;;;;;2.97;2.67;;;;;;;;;;5037796;28;20041;-86
2023/07/26 07:41:43;;;;;;;4.15;2.58;;;;;;;;;;5038403;28;20029;-87
2023/07/26 07:44:09;;;;;;;3.42;2.55;;;;;;;;;;5032624;28;20042;-87
2023/07/26 07:46:35;;;;;;;5.95;3.65;;;;;;;;;;5030547;28;20038;-86
2023/07/26 07:49:01;;;;;;;3.65;3.08;;;;;;;;;;5031767;28;20506;-86
2023/07/26 07:51:27;;;;;;;5.68;3.15;;;;;;;;;;5031739;28;20041;-85
2023/07/26 07:53:53;;;;;;;4.82;2.65;;;;;;;;;;5012676;28;20050;-86
2023/07/26 07:56:19;;;;;;;3.65;2.88;;;;;;;;;;5013516;28;20115;-86
2023/07/26 07:58:45;;;;;;;5.03;2.92;;;;;;;;;;5031898;28;20393;-86
2023/07/26 08:01:11;;;;;;;4.47;2.90;;;;;;;;;;5030783;28;20067;-86
2023/07/26 08:03:38;;;;;;;5.30;3.42;;;;;;;;;;5030175;28;20122;-86
2023/07/26 08:06:04;;;;;;;3.20;2.75;;;;;;;;;;5025789;28;20041;-82
2023/07/26 08:08:30;;;;;;;4.28;2.65;;;;;;;;;;5029038;28;20394;-84
2023/07/26 08:10:56;;;;;;;4.22;2.95;;;;;;;;;;5015691;28;20682;-89
2023/07/26 08:13:22;;;;;;;4.65;3.60;;;;;;;;;;5031981;28;20037;-89
2023/07/26 08:15:48;;;;;;;3.55;2.45;;;;;;;;;;5013657;28;20087;-86
2023/07/26 08:18:14;;;;;;;6.10;3.25;;;;;;;;;;5031379;28;20045;-87
2023/07/26 08:20:40;;;;;;;4.15;2.70;;;;;;;;;;5029865;28;20037;-87
2023/07/26 08:23:06;;;;;;;2.58;2.17;;;;;;;;;;5030601;28;20033;-87
2023/07/26 08:25:32;;;;;;;5.15;2.65;;;;;;;;;;5030916;28;20124;-86
2023/07/26 08:27:58;;;;;;;4.95;2.78;;;;;;;;;;5013789;28;20390;-87
2023/07/26 08:30:24;;;;;;;3.90;2.55;;;;;;;;;;5030448;28;20049;-87
2023/07/26 08:32:51;;;;;;;2.97;2.22;;;;;;;;;;5004530;28;20041;-88
2023/07/26 08:35:17;;;;;;;3.88;2.53;;;;;;;;;;5031669;28;20045;-88
2023/07/26 08:37:43;;;;;;;3.08;1.95;;;;;;;;;;5030863;28;20096;-88
2023/07/26 08:40:09;;;;;;;4.10;2.67;;;;;;;;;;5013905;28;20043;-87
2023/07/26 08:42:35;;;;;;;4.50;2.40;;;;;;;;;;5014076;28;20041;-87
2023/07/26 08:45:03;;;;;;;2.90;2.33;;;;;;;;;;5029563;28;20103;-87
2023/07/26 08:47:29;;;;;;;3.78;2.28;;;;;;;;;;5013752;28;20045;-86
2023/07/26 08:49:56;;;;;;;3.25;2.50;;;;;;;;;;5013100;28;20049;-85
2023/07/26 08:52:23;;;;;;;3.65;2.67;;;;;;;;;;5030448;28;20129;-86
2023/07/26 08:54:49;;;;;;;3.38;2.67;;;;;;;;;;5030082;28;20091;-84
2023/07/26 08:57:16;;;;;;;3.50;2.65;;;;;;;;;;5030266;28;20044;-83
2023/07/26 08:59:42;;;;;;;4.03;2.90;;;;;;;;;;5029090;28;20057;-83
2023/07/26 09:02:09;;;;;;;3.90;3.13;;;;;;;;;;5030895;28;20080;-82
2023/07/26 09:04:35;;;;;;;3.45;2.40;;;;;;;;;;5029888;28;20044;-82
2023/07/26 09:07:02;;;;;;;2.00;1.67;;;;;;;;;;5029841;28;20402;-82
2023/07/26 09:09:28;;;;;;;2.53;1.75;;;;;;;;;;5011514;28;20526;-83
2023/07/26 09:11:54;;;;;;;1.95;1.75;;;;;;;;;;5028731;28;20037;-82
2023/07/26 09:14:26;;;;;;;2.45;1.75;;;;;;;;;;5011602;28;20506;-83
2023/07/26 09:16:55;;;;;;;2.53;1.70;;;;;;;;;;5030033;28;20045;-83
2023/07/26 09:19:27;;;;;;;2.67;1.95;;;;;;;;;;5011400;28;20045;-82
2023/07/26 09:21:57;;;;;;;2.90;1.90;;;;;;;;;;5009325;28;20120;-83
2023/07/26 09:24:28;;;;;;;2.60;1.90;;;;;;;;;;5013126;28;20041;-91
2023/07/26 09:27:02;;;;;;;3.67;1.98;;;;;;;;;;5032386;28;20120;-93
2023/07/26 09:29:28;;;;;;;2.42;1.67;;;;;;;;;;5028830;28;20084;-85
2023/07/26 09:31:54;;;;;;;2.67;2.28;;;;;;;;;;5030037;28;20042;-87
2023/07/26 09:34:20;;;;;;;3.88;2.47;;;;;;;;;;5025491;28;20041;-86
2023/07/26 09:36:51;;;;;;;3.58;2.45;;;;;;;;;;5028196;28;20055;-87
2023/07/26 09:39:18;;;;;;;3.70;2.30;;;;;;;;;;5029501;28;20049;-86
2023/07/26 09:41:48;;;;;;;3.10;2.25;;;;;;;;;;4992533;28;20042;-86
2023/07/26 09:44:15;;;;;;;5.15;2.80;;;;;;;;;;5010056;28;20046;-86
2023/07/26 09:46:49;;;;;;;3.60;2.60;;;;;;;;;;5011328;28;20426;-87
2023/07/26 09:49:15;;;;;;;4.63;2.78;;;;;;;;;;4995226;28;20057;-87
2023/07/26 09:51:44;;;;;;;2.45;1.98;;;;;;;;;;5027497;28;20538;-88
2023/07/26 09:54:10;;;;;;;3.40;2.35;;;;;;;;;;5029826;28;20116;-88
2023/07/26 09:56:38;;;;;;;3.90;2.25;;;;;;;;;;5029218;28;20522;-91
2023/07/26 09:59:06;;;;;;;4.82;3.28;;;;;;;;;;5029374;28;20120;-87
2023/07/26 10:01:33;;;;;;;3.30;2.40;;;;;;;;;;5021964;28;20046;-86
2023/07/26 10:04:00;;;;;;;2.10;1.77;;;;;;;;;;5012313;28;20095;-83
2023/07/26 10:06:29;;;;;;;3.78;2.17;;;;;;;;;;5009196;28;20061;-83
2023/07/26 10:08:55;;;;;;;2.53;2.17;;;;;;;;;;5011748;28;20037;-83
2023/07/26 10:11:22;;;;;;;2.92;2.50;;;;;;;;;;5010475;28;20056;-83
2023/07/26 10:13:49;;;;;;;3.25;2.25;;;;;;;;;;5025177;28;20052;-83
2023/07/26 10:16:15;;;;;;;2.15;1.88;;;;;;;;;;5023725;28;20125;-84
2023/07/26 10:18:42;;;;;;;3.35;2.30;;;;;;;;;;5024167;28;20083;-84
2023/07/26 10:21:09;;;;;;;5.28;2.67;;;;;;;;;;5025984;28;20037;-84
2023/07/26 10:23:35;;;;;;;4.00;1.85;;;;;;;;;;5010723;28;20052;-84
2023/07/26 10:26:04;;;;;;;2.08;1.60;;;;;;;;;;5028940;28;20045;-83
2023/07/26 10:28:33;;;;;;;2.33;1.65;;;;;;;;;;5024924;28;20409;-83
2023/07/26 10:30:59;;;;;;;2.35;1.52;;;;;;;;;;5011085;28;20419;-83
2023/07/26 10:33:26;;;;;;;2.35;1.65;;;;;;;;;;5005881;28;20038;-84
2023/07/26 10:35:52;;;;;;;3.70;2.30;;;;;;;;;;5019650;28;20084;-86
2023/07/26 10:38:19;;;;;;;6.65;2.35;;;;;;;;;;4996343;28;20417;-84
2023/07/26 10:40:45;;;;;;;3.58;2.40;;;;;;;;;;5012735;28;20091;-85
2023/07/26 10:43:20;;;;;;;2.75;1.80;;;;;;;;;;5031746;28;20056;-83
2023/07/26 10:45:46;;;;;;;3.70;1.90;;;;;;;;;;5032114;28;20510;-85
2023/07/26 10:48:31;;;;;;;2.00;1.60;;;;;;;;;;5033458;28;20128;-85
2023/07/26 10:50:58;;;;;;;3.85;2.83;;;;;;;;;;5032171;28;20041;-85
2023/07/26 10:53:26;;;;;;;2.65;1.63;;;;;;;;;;5032138;28;20111;-84
2023/07/26 10:55:53;;;;;;;2.60;2.08;;;;;;;;;;5032361;28;20041;-84
2023/07/26 10:58:18;;;;;;;3.35;1.80;;;;;;;;;;5030186;28;20033;-93
2023/07/26 11:00:45;;;;;;;2.45;2.00;;;;;;;;;;5033176;28;20403;-93
2023/07/26 11:03:12;;;;;;;3.90;2.30;;;;;;;;;;5035742;28;20064;-94
2023/07/26 11:05:54;;;;;;;2.92;2.20;;;;;;;;;;5016073;28;20159;-90
2023/07/26 11:08:20;;;;;;;1.65;1.10;;;;;;;;;;5019674;28;20048;-90
2023/07/26 11:10:50;;;;;;;2.55;1.38;;;;;;;;;;5030463;28;20064;-92
2023/07/26 11:13:18;;;;;;;5.10;1.70;;;;;;;;;;5027896;28;20038;-87
2023/07/26 11:15:48;;;;;;;2.97;1.50;;;;;;;;;;5036174;28;20049;-88
2023/07/26 11:18:14;;;;;;;1.52;1.05;;;;;;;;;;5036412;28;20068;-86
2023/07/26 11:20:44;;;;;;;1.95;1.08;;;;;;;;;;5032071;28;20065;-85
2023/07/26 11:23:23;;;;;;;2.47;1.35;;;;;;;;;;4996875;28;20037;-85
2023/07/26 11:25:50;;;;;;;1.48;1.10;;;;;;;;;;5031907;28;20116;-85
2023/07/26 11:28:17;;;;;;;1.60;0.80;;;;;;;;;;5033156;28;20505;-86
2023/07/26 11:30:50;;;;;;;1.70;1.13;;;;;;;;;;5031721;28;20037;-82
2023/07/26 11:33:26;;;;;;;1.25;0.90;;;;;;;;;;5030949;28;20037;-84
2023/07/26 11:35:52;;;;;;;2.63;1.10;;;;;;;;;;5034872;28;20037;-86
2023/07/26 11:38:18;;;;;;;1.80;1.48;;;;;;;;;;5014924;28;20099;-82
2023/07/26 11:40:45;;;;;;;3.05;1.60;;;;;;;;;;5014908;28;20040;-88
2023/07/26 11:43:11;;;;;;;1.98;1.20;;;;;;;;;;5034816;28;20040;-84
2023/07/26 11:45:37;;;;;;;2.17;1.52;;;;;;;;;;5033628;28;20124;-85
2023/07/26 11:48:09;;;;;;;2.45;1.20;;;;;;;;;;5016216;28;20041;-84
2023/07/26 11:50:36;;;;;;;1.15;0.73;;;;;;;;;;5030405;28;20425;-85
2023/07/26 11:53:03;;;;;;;1.75;0.93;;;;;;;;;;5031706;28;20041;-85
2023/07/26 11:55:30;;;;;;;2.00;1.30;;;;;;;;;;5031525;28;20049;-86
2023/07/26 11:57:59;;;;;;;1.90;0.90;;;;;;;;;;5013301;28;20046;-87
2023/07/26 12:00:26;;;;;;;2.47;1.15;;;;;;;;;;5030669;28;20050;-86
2023/07/26 12:02:52;;;;;;;1.40;1.10;;;;;;;;;;5013586;28;20057;-85
2023/07/26 12:05:19;;;;;;;1.45;1.08;;;;;;;;;;5027973;28;20064;-86
2023/07/26 12:07:46;;;;;;;1.25;0.90;;;;;;;;;;5024852;28;20049;-86
2023/07/26 12:10:13;;;;;;;2.00;1.38;;;;;;;;;;5030406;28;20037;-86
2023/07/26 12:12:40;;;;;;;1.23;0.80;;;;;;;;;;5031566;28;20549;-88
2023/07/26 12:15:08;;;;;;;2.25;1.20;;;;;;;;;;5032199;28;20037;-88
2023/07/26 12:17:34;;;;;;;1.33;1.02;;;;;;;;;;5031550;28;20049;-90
2023/07/26 12:20:08;;;;;;;1.73;1.05;;;;;;;;;;4998041;28;20046;-89
2023/07/26 12:22:34;;;;;;;1.15;0.90;;;;;;;;;;5031968;28;20375;-91
2023/07/26 12:25:02;;;;;;;1.58;1.00;;;;;;;;;;5031557;28;20060;-93
2023/07/26 12:27:33;;;;;;;1.20;0.95;;;;;;;;;;5033840;28;20095;-94
2023/07/26 12:29:59;;;;;;;2.70;1.13;;;;;;;;;;5016518;28;20467;-92
2023/07/26 12:32:25;;;;;;;1.40;1.10;;;;;;;;;;5016387;28;20056;-93
2023/07/26 12:34:51;;;;;;;2.53;1.10;;;;;;;;;;5019218;28;20120;-89
2023/07/26 12:37:17;;;;;;;2.28;1.48;;;;;;;;;;5034706;28;20490;-94
2023/07/26 12:39:45;;;;;;;2.15;1.25;;;;;;;;;;5001344;28;20121;-90
2023/07/26 12:42:11;;;;;;;2.08;1.40;;;;;;;;;;5008923;28;20056;-93
2023/07/26 12:44:37;;;;;;;1.42;1.10;;;;;;;;;;5033904;28;20041;-95
2023/07/26 12:47:03;;;;;;;1.52;1.17;;;;;;;;;;5026950;28;20449;-94
2023/07/26 12:49:34;;;;;;;2.55;1.50;;;;;;;;;;5035809;28;20072;-90
2023/07/26 12:52:00;;;;;;;2.78;1.50;;;;;;;;;;5018552;28;20049;-93
2023/07/26 12:54:26;;;;;;;3.03;1.33;;;;;;;;;;5010793;28;20037;-91
2023/07/26 12:56:52;;;;;;;2.67;1.48;;;;;;;;;;5015481;28;20045;-90
2023/07/26 12:59:18;;;;;;;1.88;1.40;;;;;;;;;;5034618;28;20112;-90
2023/07/26 13:01:44;;;;;;;2.25;1.58;;;;;;;;;;5033463;28;20042;-87
2023/07/26 13:04:10;;;;;;;3.80;1.60;;;;;;;;;;5035927;28;20041;-85
2023/07/26 13:06:36;;;;;;;1.95;1.30;;;;;;;;;;5019042;28;20037;-90
2023/07/26 13:09:02;;;;;;;3.88;1.33;;;;;;;;;;5035011;28;20048;-94
2023/07/26 13:11:28;;;;;;;1.30;1.10;;;;;;;;;;5016438;28;20041;-91
2023/07/26 13:13:54;;;;;;;4.53;1.83;;;;;;;;;;5034912;28;20041;-93
2023/07/26 13:16:20;;;;;;;2.15;1.50;;;;;;;;;;5033711;28;20111;-91
2023/07/26 13:18:46;;;;;;;3.65;2.17;;;;;;;;;;5033021;28;20037;-93
2023/07/26 13:21:12;;;;;;;2.78;1.60;;;;;;;;;;5028855;28;20194;-93
2023/07/26 13:23:38;;;;;;;2.80;1.65;;;;;;;;;;5043451;28;20545;-91
2023/07/26 13:26:04;;;;;;;3.33;2.08;;;;;;;;;;5046603;28;20046;-93
2023/07/26 13:28:30;;;;;;;3.10;1.95;;;;;;;;;;5031549;28;20087;-93
2023/07/26 13:30:56;;;;;;;4.90;2.00;;;;;;;;;;5015676;28;20049;-92
2023/07/26 13:33:22;;;;;;;3.33;1.92;;;;;;;;;;5013685;28;20041;-95
2023/07/26 13:35:48;;;;;;;2.95;1.70;;;;;;;;;;5030532;28;20041;-93
2023/07/26 13:38:14;;;;;;;3.83;2.05;;;;;;;;;;5015495;28;20474;-91
2023/07/26 13:40:40;;;;;;;3.22;1.83;;;;;;;;;;5014773;28;20087;-94
2023/07/26 13:43:07;;;;;;;3.38;1.65;;;;;;;;;;5014915;28;20077;-87
2023/07/26 13:45:33;;;;;;;2.13;1.63;;;;;;;;;;5034215;28;20048;-90
2023/07/26 13:47:59;;;;;;;3.75;1.90;;;;;;;;;;5018810;28;20049;-93
2023/07/26 13:50:25;;;;;;;3.30;2.00;;;;;;;;;;5034928;28;20041;-95
2023/07/26 13:52:51;;;;;;;2.85;1.77;;;;;;;;;;5037570;28;20041;-96
2023/07/26 13:55:17;;;;;;;3.10;1.88;;;;;;;;;;5040722;28;20046;-89
2023/07/26 13:57:43;;;;;;;4.30;1.83;;;;;;;;;;5021514;28;20053;-96
2023/07/26 14:00:09;;;;;;;3.20;1.65;;;;;;;;;;5042069;28;20054;-96
2023/07/26 14:02:35;;;;;;;3.10;1.60;;;;;;;;;;5041401;28;20049;-94
2023/07/26 14:05:02;;;;;;;2.72;1.70;;;;;;;;;;5042483;28;20383;-95
2023/07/26 14:07:28;;;;;;;3.78;1.88;;;;;;;;;;5035736;28;20045;-91
2023/07/26 14:09:54;;;;;;;2.22;1.45;;;;;;;;;;5030784;28;20037;-92
2023/07/26 14:12:20;;;;;;;3.35;1.65;;;;;;;;;;5030557;28;20120;-88
2023/07/26 14:14:46;;;;;;;2.92;1.65;;;;;;;;;;5013074;28;20111;-89
2023/07/26 14:17:12;;;;;;;3.60;1.30;;;;;;;;;;5011748;28;20465;-89
2023/07/26 14:19:38;;;;;;;4.25;1.70;;;;;;;;;;5030295;28;20056;-90
2023/07/26 14:22:04;;;;;;;3.70;1.90;;;;;;;;;;5013842;28;20046;-89
2023/07/26 14:24:30;;;;;;;3.72;1.58;;;;;;;;;;5030369;28;20081;-93
2023/07/26 14:26:56;;;;;;;4.88;1.60;;;;;;;;;;5030075;28;20049;-89
2023/07/26 14:29:23;;;;;;;2.88;1.42;;;;;;;;;;5028251;28;20046;-85
2023/07/26 14:31:50;;;;;;;4.78;1.88;;;;;;;;;;5029295;28;20040;-86
2023/07/26 14:34:16;;;;;;;3.92;1.50;;;;;;;;;;5011004;28;20049;-85
2023/07/26 14:36:42;;;;;;;2.20;1.60;;;;;;;;;;5028848;28;20049;-91
2023/07/26 14:39:08;;;;;;;4.70;1.92;;;;;;;;;;4994745;28;20045;-86